Time;durP1;ratioP1;P1;durP2;ratioP2;P2;SDS_P1;SDS_P2;PMS_P1;PMS_P2;Temp;Humidity;BMP_temperature;BMP_pressure;BME280_temperature;BME280_humidity;BME280_pressure;Samples;Min_cycle;Max_cycle;Signal;HPM_P1;HPM_P2
2022/12/02 00:00:43;;;;;;;12.68;8.80;;;;;;;;;;5084807;28;20024;-78
2022/12/02 00:03:12;;;;;;;14.30;9.10;;;;;;;;;;5081708;28;20112;-77
2022/12/02 00:05:39;;;;;;;15.88;9.25;;;;;;;;;;5075107;28;20025;-78
2022/12/02 00:08:31;;;;;;;14.25;9.10;;;;;;;;;;5069267;28;20024;-80
2022/12/02 00:11:00;;;;;;;13.57;8.35;;;;;;;;;;5062540;28;20029;-79
2022/12/02 00:13:28;;;;;;;10.93;7.53;;;;;;;;;;5072371;28;20021;-79
2022/12/02 00:15:58;;;;;;;14.57;8.00;;;;;;;;;;5073077;28;20382;-80
2022/12/02 00:18:25;;;;;;;10.35;7.65;;;;;;;;;;5080920;28;20088;-78
2022/12/02 00:20:51;;;;;;;9.00;7.13;;;;;;;;;;5080527;28;20036;-79
2022/12/02 00:23:17;;;;;;;11.45;6.45;;;;;;;;;;5098747;28;20036;-80
2022/12/02 00:25:46;;;;;;;8.98;6.10;;;;;;;;;;5082044;28;20020;-80
2022/12/02 00:28:12;;;;;;;9.68;5.53;;;;;;;;;;5084553;28;20099;-79
2022/12/02 00:30:39;;;;;;;9.50;5.85;;;;;;;;;;5059206;28;20047;-79
2022/12/02 00:33:06;;;;;;;10.13;6.10;;;;;;;;;;5097181;28;20433;-78
2022/12/02 00:35:32;;;;;;;9.88;5.38;;;;;;;;;;5078921;28;20104;-79
2022/12/02 00:37:58;;;;;;;8.98;5.43;;;;;;;;;;5080815;28;20056;-78
2022/12/02 00:40:24;;;;;;;10.70;6.55;;;;;;;;;;5079495;28;20035;-78
2022/12/02 00:42:50;;;;;;;8.52;6.22;;;;;;;;;;5077207;28;20036;-79
2022/12/02 00:48:01;;;;;;;13.57;7.03;;;;;;;;;;5078673;28;20035;-80
2022/12/02 00:50:27;;;;;;;13.43;7.22;;;;;;;;;;5082196;28;20032;-81
2022/12/02 00:52:53;;;;;;;8.93;5.78;;;;;;;;;;5079907;28;20106;-78
2022/12/02 00:55:20;;;;;;;11.98;5.75;;;;;;;;;;5077248;28;20038;-80
2022/12/02 00:57:46;;;;;;;7.45;5.43;;;;;;;;;;5077513;28;20028;-79
2022/12/02 01:00:12;;;;;;;8.38;5.10;;;;;;;;;;5074001;28;20032;-81
2022/12/02 01:02:38;;;;;;;9.68;5.43;;;;;;;;;;5076568;28;20033;-78
2022/12/02 01:05:05;;;;;;;11.68;5.60;;;;;;;;;;5077256;28;20032;-77
2022/12/02 01:07:31;;;;;;;10.48;4.95;;;;;;;;;;5079016;28;20021;-80
2022/12/02 01:09:57;;;;;;;10.25;4.72;;;;;;;;;;5080293;28;20024;-80
2022/12/02 01:12:23;;;;;;;8.00;4.57;;;;;;;;;;5075709;28;20017;-79
2022/12/02 01:14:49;;;;;;;9.30;5.13;;;;;;;;;;5088018;28;20043;-79
2022/12/02 01:17:15;;;;;;;9.07;5.25;;;;;;;;;;5090048;28;20047;-78
2022/12/02 01:19:41;;;;;;;7.25;4.60;;;;;;;;;;5084431;28;20020;-80
2022/12/02 01:22:07;;;;;;;7.60;4.28;;;;;;;;;;5081132;28;20426;-78
2022/12/02 01:24:33;;;;;;;7.78;4.25;;;;;;;;;;5075227;28;20029;-79
2022/12/02 01:26:59;;;;;;;9.68;4.20;;;;;;;;;;5075392;28;20028;-78
2022/12/02 01:29:25;;;;;;;7.82;4.22;;;;;;;;;;5072261;28;20471;-80
2022/12/02 01:31:54;;;;;;;6.97;4.20;;;;;;;;;;5079625;28;20040;-79
2022/12/02 01:34:20;;;;;;;5.05;3.70;;;;;;;;;;5079360;28;20024;-78
2022/12/02 01:36:46;;;;;;;5.90;3.88;;;;;;;;;;5082148;28;20035;-78
2022/12/02 01:39:12;;;;;;;7.95;4.05;;;;;;;;;;5079459;28;20031;-78
2022/12/02 01:41:38;;;;;;;7.10;4.28;;;;;;;;;;5079313;28;20072;-80
2022/12/02 01:44:05;;;;;;;8.63;4.15;;;;;;;;;;5080005;28;20032;-78
2022/12/02 01:46:31;;;;;;;9.02;4.45;;;;;;;;;;5097646;28;20095;-80
2022/12/02 01:48:57;;;;;;;7.40;4.65;;;;;;;;;;5091298;28;20410;-78
2022/12/02 01:51:23;;;;;;;5.70;4.80;;;;;;;;;;5095461;28;20023;-79
2022/12/02 01:53:49;;;;;;;8.10;4.45;;;;;;;;;;5092890;28;20115;-78
2022/12/02 01:56:15;;;;;;;7.93;4.68;;;;;;;;;;5101509;28;20096;-77
2022/12/02 01:58:41;;;;;;;11.88;5.05;;;;;;;;;;5087374;28;20028;-76
2022/12/02 02:01:27;;;;;;;13.40;4.63;;;;;;;;;;5093505;28;20052;-77
2022/12/02 02:03:53;;;;;;;5.10;4.60;;;;;;;;;;5088206;28;20146;-78
2022/12/02 02:06:20;;;;;;;8.57;4.20;;;;;;;;;;5071797;28;20035;-78
2022/12/02 02:08:46;;;;;;;10.07;4.68;;;;;;;;;;5087378;28;20088;-77
2022/12/02 02:11:12;;;;;;;5.60;4.43;;;;;;;;;;5082959;28;20044;-78
2022/12/02 02:13:38;;;;;;;7.38;4.43;;;;;;;;;;5087517;28;20090;-77
2022/12/02 02:16:04;;;;;;;6.47;4.75;;;;;;;;;;5094004;28;20063;-76
2022/12/02 02:18:30;;;;;;;7.78;4.90;;;;;;;;;;5069989;28;20139;-77
2022/12/02 02:20:57;;;;;;;6.22;4.50;;;;;;;;;;5091985;28;20024;-76
2022/12/02 02:23:24;;;;;;;5.90;4.68;;;;;;;;;;5093589;28;20028;-77
2022/12/02 02:25:52;;;;;;;6.03;4.82;;;;;;;;;;5089851;28;20028;-77
2022/12/02 02:28:18;;;;;;;7.10;5.20;;;;;;;;;;5086437;28;20042;-80
2022/12/02 02:30:45;;;;;;;8.52;5.32;;;;;;;;;;5099081;28;20017;-77
2022/12/02 02:33:12;;;;;;;8.05;5.05;;;;;;;;;;5074635;28;20027;-78
2022/12/02 02:35:41;;;;;;;9.73;5.63;;;;;;;;;;5074555;28;20032;-78
2022/12/02 02:38:09;;;;;;;9.55;4.57;;;;;;;;;;5086676;28;20020;-76
2022/12/02 02:40:35;;;;;;;5.85;4.25;;;;;;;;;;5092873;28;20622;-78
2022/12/02 02:43:02;;;;;;;6.28;4.60;;;;;;;;;;5086062;28;20442;-78
2022/12/02 02:45:29;;;;;;;10.25;5.20;;;;;;;;;;5087841;28;20027;-78
2022/12/02 02:47:56;;;;;;;6.25;4.68;;;;;;;;;;5087683;28;20046;-77
2022/12/02 02:50:22;;;;;;;10.50;5.47;;;;;;;;;;5077720;28;20841;-79
2022/12/02 02:52:49;;;;;;;10.00;5.57;;;;;;;;;;5068854;28;20024;-79
2022/12/02 02:55:18;;;;;;;9.70;5.35;;;;;;;;;;5065651;28;20059;-78
2022/12/02 02:57:44;;;;;;;8.80;5.57;;;;;;;;;;5080094;28;20029;-78
2022/12/02 03:00:10;;;;;;;10.23;5.88;;;;;;;;;;5086804;28;20035;-77
2022/12/02 03:02:36;;;;;;;8.68;5.53;;;;;;;;;;5086421;28;20035;-78
2022/12/02 03:05:03;;;;;;;6.95;5.10;;;;;;;;;;5093351;28;20030;-77
2022/12/02 03:07:29;;;;;;;11.60;5.30;;;;;;;;;;5088238;28;20073;-77
2022/12/02 03:09:55;;;;;;;8.43;5.07;;;;;;;;;;5077144;28;20485;-79
2022/12/02 03:12:22;;;;;;;7.63;5.30;;;;;;;;;;5087298;28;20031;-77
2022/12/02 03:14:48;;;;;;;6.20;4.90;;;;;;;;;;5085122;28;20040;-77
2022/12/02 03:17:14;;;;;;;6.75;4.60;;;;;;;;;;5086689;28;20041;-76
2022/12/02 03:19:41;;;;;;;7.65;4.63;;;;;;;;;;5087340;28;20028;-76
2022/12/02 03:22:08;;;;;;;5.43;4.13;;;;;;;;;;5089079;28;20017;-78
2022/12/02 03:24:34;;;;;;;5.78;4.22;;;;;;;;;;5086818;28;20055;-78
2022/12/02 03:27:01;;;;;;;6.15;4.25;;;;;;;;;;5086343;28;20028;-77
2022/12/02 03:29:28;;;;;;;4.93;4.00;;;;;;;;;;5086526;28;20048;-76
2022/12/02 03:31:55;;;;;;;5.57;4.07;;;;;;;;;;5085899;28;20032;-77
2022/12/02 03:34:21;;;;;;;5.70;5.03;;;;;;;;;;5088069;28;20058;-78
2022/12/02 03:36:47;;;;;;;6.95;4.18;;;;;;;;;;5097470;28;20038;-77
2022/12/02 03:39:13;;;;;;;6.22;4.97;;;;;;;;;;5080394;28;20028;-77
2022/12/02 03:41:40;;;;;;;7.53;4.30;;;;;;;;;;5087160;28;20024;-77
2022/12/02 03:44:06;;;;;;;5.15;4.65;;;;;;;;;;5087176;28;20046;-77
2022/12/02 03:46:32;;;;;;;6.35;4.32;;;;;;;;;;5086027;28;20017;-77
2022/12/02 03:48:59;;;;;;;7.40;4.13;;;;;;;;;;5085537;28;20028;-77
2022/12/02 03:51:29;;;;;;;7.18;4.78;;;;;;;;;;5086241;28;20028;-76
2022/12/02 03:53:55;;;;;;;7.05;4.80;;;;;;;;;;5089281;28;20031;-79
2022/12/02 03:56:21;;;;;;;14.00;6.10;;;;;;;;;;5079004;28;20036;-77
2022/12/02 03:58:49;;;;;;;7.38;4.18;;;;;;;;;;5086629;28;20025;-76
2022/12/02 04:01:15;;;;;;;7.05;4.22;;;;;;;;;;5085625;28;20028;-77
2022/12/02 04:03:41;;;;;;;6.35;4.22;;;;;;;;;;5087890;28;20032;-76
2022/12/02 04:06:07;;;;;;;7.25;3.67;;;;;;;;;;5090883;28;20021;-76
2022/12/02 04:08:34;;;;;;;5.28;4.07;;;;;;;;;;5086374;28;20031;-77
2022/12/02 04:11:00;;;;;;;6.28;3.90;;;;;;;;;;5101680;28;20032;-77
2022/12/02 04:13:26;;;;;;;7.55;4.15;;;;;;;;;;5085555;28;20259;-76
2022/12/02 04:15:52;;;;;;;5.00;4.45;;;;;;;;;;5074321;28;20056;-76
2022/12/02 04:18:19;;;;;;;7.25;3.65;;;;;;;;;;5085639;28;20049;-76
2022/12/02 04:20:45;;;;;;;7.40;3.70;;;;;;;;;;5088000;28;20096;-78
2022/12/02 04:23:11;;;;;;;7.93;3.92;;;;;;;;;;5085980;28;20047;-77
2022/12/02 04:25:37;;;;;;;6.82;4.20;;;;;;;;;;5089261;28;20531;-79
2022/12/02 04:28:03;;;;;;;6.53;3.28;;;;;;;;;;5088789;28;20058;-77
2022/12/02 04:30:29;;;;;;;6.88;3.55;;;;;;;;;;5097501;28;20039;-78
2022/12/02 04:32:55;;;;;;;7.15;3.92;;;;;;;;;;5067873;28;20033;-80
2022/12/02 04:35:21;;;;;;;8.40;3.45;;;;;;;;;;5085645;28;20025;-77
2022/12/02 04:37:50;;;;;;;6.13;4.32;;;;;;;;;;5086028;28;20032;-78
2022/12/02 04:40:17;;;;;;;6.35;3.80;;;;;;;;;;5085364;28;20040;-78
2022/12/02 04:42:43;;;;;;;3.78;3.30;;;;;;;;;;5085770;28;20032;-77
2022/12/02 04:45:09;;;;;;;4.97;4.10;;;;;;;;;;5086112;28;20024;-78
2022/12/02 04:47:35;;;;;;;5.78;3.63;;;;;;;;;;5058157;28;20088;-77
2022/12/02 04:50:02;;;;;;;4.65;3.80;;;;;;;;;;5084524;28;20066;-76
2022/12/02 04:52:28;;;;;;;5.10;3.47;;;;;;;;;;5064672;28;20051;-76
2022/12/02 04:54:54;;;;;;;5.20;3.50;;;;;;;;;;5082604;28;20025;-76
2022/12/02 04:57:20;;;;;;;6.65;4.00;;;;;;;;;;5085358;28;20108;-77
2022/12/02 04:59:51;;;;;;;3.58;3.10;;;;;;;;;;5097337;28;20488;-78
2022/12/02 05:02:17;;;;;;;6.15;3.42;;;;;;;;;;5091850;28;20055;-77
2022/12/02 05:04:44;;;;;;;5.07;3.47;;;;;;;;;;5087654;28;20371;-77
2022/12/02 05:07:10;;;;;;;8.05;3.47;;;;;;;;;;5089398;28;20103;-76
2022/12/02 05:09:36;;;;;;;4.07;3.60;;;;;;;;;;5076423;28;20028;-76
2022/12/02 05:12:03;;;;;;;5.75;3.28;;;;;;;;;;5090489;28;20028;-77
2022/12/02 05:14:29;;;;;;;5.60;3.60;;;;;;;;;;5087940;28;20058;-77
2022/12/02 05:16:55;;;;;;;5.25;3.47;;;;;;;;;;5090611;28;20049;-78
2022/12/02 05:19:21;;;;;;;6.82;3.67;;;;;;;;;;5089049;28;20033;-78
2022/12/02 05:21:47;;;;;;;6.72;3.63;;;;;;;;;;5089594;28;20103;-77
2022/12/02 05:24:13;;;;;;;5.30;3.90;;;;;;;;;;5091286;28;20074;-77
2022/12/02 05:26:39;;;;;;;5.60;3.45;;;;;;;;;;5083505;28;20084;-79
2022/12/02 05:29:06;;;;;;;5.82;3.67;;;;;;;;;;5074106;28;20029;-76
2022/12/02 05:31:32;;;;;;;6.25;4.00;;;;;;;;;;5089246;28;20099;-76
2022/12/02 05:33:58;;;;;;;6.28;3.60;;;;;;;;;;5088627;28;20035;-77
2022/12/02 05:36:24;;;;;;;5.38;3.45;;;;;;;;;;5088464;28;20059;-76
2022/12/02 05:38:50;;;;;;;5.50;3.78;;;;;;;;;;5088441;28;20024;-79
2022/12/02 05:41:17;;;;;;;5.35;4.53;;;;;;;;;;5070813;28;20402;-78
2022/12/02 05:43:43;;;;;;;6.35;3.60;;;;;;;;;;5088244;28;20060;-76
2022/12/02 05:46:15;;;;;;;4.07;3.67;;;;;;;;;;5088376;28;20025;-77
2022/12/02 05:48:41;;;;;;;4.43;3.63;;;;;;;;;;5101658;28;20035;-79
2022/12/02 05:51:12;;;;;;;8.50;4.05;;;;;;;;;;5088405;28;20040;-76
2022/12/02 05:53:39;;;;;;;4.45;3.85;;;;;;;;;;5104478;28;20024;-77
2022/12/02 05:56:06;;;;;;;6.47;3.45;;;;;;;;;;5074627;28;20092;-77
2022/12/02 05:58:32;;;;;;;7.50;3.85;;;;;;;;;;5088167;28;20483;-76
2022/12/02 06:00:59;;;;;;;5.80;3.75;;;;;;;;;;5086632;28;20417;-77
2022/12/02 06:03:26;;;;;;;5.70;3.97;;;;;;;;;;5089540;28;20035;-77
2022/12/02 06:05:52;;;;;;;5.40;3.90;;;;;;;;;;5084942;28;20048;-77
2022/12/02 06:08:20;;;;;;;5.43;3.95;;;;;;;;;;5080035;28;20047;-77
2022/12/02 06:10:57;;;;;;;4.80;3.75;;;;;;;;;;5073064;28;20035;-77
2022/12/02 06:13:25;;;;;;;4.90;3.65;;;;;;;;;;5087864;28;20029;-77
2022/12/02 06:15:52;;;;;;;4.65;3.47;;;;;;;;;;5103566;28;20047;-77
2022/12/02 06:18:22;;;;;;;5.10;3.28;;;;;;;;;;5087714;28;20059;-76
2022/12/02 06:20:52;;;;;;;5.28;3.47;;;;;;;;;;5103860;28;20027;-77
2022/12/02 06:23:19;;;;;;;5.28;3.53;;;;;;;;;;5104235;28;20025;-76
2022/12/02 06:25:47;;;;;;;7.75;3.65;;;;;;;;;;5067671;28;20121;-76
2022/12/02 06:28:21;;;;;;;7.50;3.25;;;;;;;;;;5081743;28;20116;-77
2022/12/02 06:30:47;;;;;;;3.92;3.20;;;;;;;;;;5063590;28;20021;-77
2022/12/02 06:33:34;;;;;;;3.85;3.20;;;;;;;;;;5087497;28;20016;-77
2022/12/02 06:36:02;;;;;;;6.70;4.72;;;;;;;;;;5078831;28;20060;-77
2022/12/02 06:38:29;;;;;;;4.30;3.05;;;;;;;;;;5087466;28;20029;-77
2022/12/02 06:40:56;;;;;;;7.55;3.95;;;;;;;;;;5087088;28;20024;-77
2022/12/02 06:43:31;;;;;;;4.07;3.20;;;;;;;;;;5083281;28;20048;-77
2022/12/02 06:45:57;;;;;;;5.00;3.05;;;;;;;;;;5067861;28;20063;-79
2022/12/02 06:48:35;;;;;;;5.85;3.35;;;;;;;;;;5065214;28;20028;-79
2022/12/02 06:51:15;;;;;;;5.43;3.15;;;;;;;;;;5068335;28;20024;-78
2022/12/02 06:53:41;;;;;;;8.85;4.05;;;;;;;;;;5066997;28;20033;-78
2022/12/02 06:56:14;;;;;;;4.50;3.33;;;;;;;;;;5066697;28;20077;-78
2022/12/02 06:58:41;;;;;;;6.72;3.10;;;;;;;;;;5068096;28;20119;-79
2022/12/02 07:01:08;;;;;;;5.95;3.42;;;;;;;;;;5050236;28;20036;-78
2022/12/02 07:03:36;;;;;;;4.25;3.13;;;;;;;;;;5059557;28;20371;-78
2022/12/02 07:06:10;;;;;;;3.85;3.13;;;;;;;;;;5065329;28;20493;-79
2022/12/02 07:08:36;;;;;;;4.13;2.90;;;;;;;;;;5066305;28;20021;-78
2022/12/02 07:11:03;;;;;;;4.50;3.20;;;;;;;;;;5048459;28;20023;-79
2022/12/02 07:13:29;;;;;;;5.93;3.33;;;;;;;;;;5068774;28;20135;-78
2022/12/02 07:15:55;;;;;;;4.85;3.28;;;;;;;;;;5071774;28;20087;-78
2022/12/02 07:18:21;;;;;;;7.32;3.78;;;;;;;;;;5067127;28;20495;-79
2022/12/02 07:20:48;;;;;;;5.22;3.35;;;;;;;;;;5052089;28;20035;-78
2022/12/02 07:23:21;;;;;;;6.13;3.28;;;;;;;;;;5064201;28;20028;-78
2022/12/02 07:25:52;;;;;;;4.45;3.63;;;;;;;;;;5072802;28;20052;-79
2022/12/02 07:28:23;;;;;;;5.07;4.57;;;;;;;;;;5077116;28;20028;-78
2022/12/02 07:30:55;;;;;;;5.05;3.60;;;;;;;;;;5068962;28;20025;-79
2022/12/02 07:33:21;;;;;;;8.40;4.07;;;;;;;;;;5070616;28;20024;-78
2022/12/02 07:35:47;;;;;;;6.57;3.85;;;;;;;;;;5067027;28;20090;-78
2022/12/02 07:38:13;;;;;;;5.35;3.80;;;;;;;;;;5065029;28;20028;-78
2022/12/02 07:40:41;;;;;;;5.82;3.30;;;;;;;;;;5072999;28;20044;-78
2022/12/02 07:43:08;;;;;;;4.97;3.42;;;;;;;;;;5072367;28;20047;-79
2022/12/02 07:45:34;;;;;;;5.78;3.17;;;;;;;;;;5059817;28;20031;-79
2022/12/02 07:48:00;;;;;;;5.47;3.58;;;;;;;;;;5068038;28;20044;-78
2022/12/02 07:50:26;;;;;;;4.68;3.13;;;;;;;;;;5066876;28;20379;-78
2022/12/02 07:52:52;;;;;;;5.82;3.40;;;;;;;;;;5075291;28;20082;-77
2022/12/02 07:55:18;;;;;;;4.22;3.70;;;;;;;;;;5073297;28;20024;-78
2022/12/02 07:57:44;;;;;;;7.45;3.40;;;;;;;;;;5070050;28;20032;-78
2022/12/02 08:00:11;;;;;;;7.43;3.63;;;;;;;;;;5070521;28;20044;-81
2022/12/02 08:02:37;;;;;;;4.60;4.05;;;;;;;;;;5066991;28;20095;-79
2022/12/02 08:05:03;;;;;;;4.68;3.47;;;;;;;;;;5067477;28;20017;-78
2022/12/02 08:07:29;;;;;;;4.35;3.55;;;;;;;;;;5064937;28;20036;-79
2022/12/02 08:09:55;;;;;;;7.65;3.60;;;;;;;;;;5065214;28;20074;-78
2022/12/02 08:12:21;;;;;;;5.95;3.03;;;;;;;;;;5067597;28;20028;-78
2022/12/02 08:14:47;;;;;;;7.20;4.03;;;;;;;;;;5049741;28;20036;-78
2022/12/02 08:17:14;;;;;;;4.82;3.17;;;;;;;;;;5062486;28;20048;-78
2022/12/02 08:19:40;;;;;;;5.90;3.30;;;;;;;;;;5071215;28;20033;-78
2022/12/02 08:22:06;;;;;;;7.30;4.65;;;;;;;;;;5067762;28;20618;-81
2022/12/02 08:24:32;;;;;;;6.50;3.10;;;;;;;;;;5069737;28;20041;-78
2022/12/02 08:26:58;;;;;;;6.78;3.80;;;;;;;;;;5068494;28;20338;-78
2022/12/02 08:29:25;;;;;;;5.85;3.85;;;;;;;;;;5082435;28;20032;-78
2022/12/02 08:31:51;;;;;;;5.57;3.53;;;;;;;;;;5050752;28;20421;-78
2022/12/02 08:34:17;;;;;;;6.68;3.85;;;;;;;;;;5070130;28;20035;-78
2022/12/02 08:36:43;;;;;;;6.70;4.00;;;;;;;;;;5070288;28;20103;-78
2022/12/02 08:39:09;;;;;;;7.47;4.15;;;;;;;;;;5073342;28;20493;-78
2022/12/02 08:41:36;;;;;;;5.55;4.20;;;;;;;;;;5071699;28;20048;-79
2022/12/02 08:44:02;;;;;;;7.55;4.90;;;;;;;;;;5049591;28;20025;-79
2022/12/02 08:46:28;;;;;;;6.85;4.60;;;;;;;;;;5066788;28;20021;-78
2022/12/02 08:48:55;;;;;;;6.35;4.50;;;;;;;;;;5056338;28;20092;-78
2022/12/02 08:51:21;;;;;;;9.63;5.10;;;;;;;;;;5072059;28;20040;-79
2022/12/02 08:53:47;;;;;;;8.45;5.05;;;;;;;;;;5075057;28;20710;-79
2022/12/02 08:56:13;;;;;;;7.32;5.30;;;;;;;;;;5073555;28;20017;-78
2022/12/02 08:58:39;;;;;;;5.35;4.65;;;;;;;;;;5075102;28;20494;-79
2022/12/02 09:01:08;;;;;;;6.50;4.30;;;;;;;;;;5086132;28;20020;-79
2022/12/02 09:03:34;;;;;;;7.45;4.18;;;;;;;;;;5073844;28;20585;-78
2022/12/02 09:06:00;;;;;;;7.32;4.35;;;;;;;;;;5076996;28;20025;-78
2022/12/02 09:08:26;;;;;;;5.97;4.28;;;;;;;;;;5071613;28;20021;-79
2022/12/02 09:10:53;;;;;;;5.15;4.45;;;;;;;;;;5068254;28;20466;-79
2022/12/02 09:13:19;;;;;;;8.25;4.40;;;;;;;;;;5071466;28;20072;-78
2022/12/02 09:15:45;;;;;;;6.13;4.38;;;;;;;;;;5064061;28;20163;-78
2022/12/02 09:18:11;;;;;;;8.07;3.92;;;;;;;;;;5074554;28;20057;-78
2022/12/02 09:20:37;;;;;;;8.48;4.15;;;;;;;;;;5074295;28;20028;-78
2022/12/02 09:23:03;;;;;;;8.43;5.03;;;;;;;;;;5075820;28;20032;-78
2022/12/02 09:25:29;;;;;;;6.03;4.63;;;;;;;;;;5071159;28;20016;-79
2022/12/02 09:27:55;;;;;;;7.13;3.92;;;;;;;;;;5075098;28;20480;-79
2022/12/02 09:30:21;;;;;;;6.55;4.00;;;;;;;;;;5068645;28;20031;-78
2022/12/02 09:32:47;;;;;;;4.95;3.60;;;;;;;;;;5067642;28;20025;-78
2022/12/02 09:35:13;;;;;;;8.90;4.20;;;;;;;;;;5068609;28;20070;-78
2022/12/02 09:37:39;;;;;;;7.10;3.75;;;;;;;;;;5076919;28;20032;-78
2022/12/02 09:40:07;;;;;;;9.45;4.32;;;;;;;;;;5070010;28;20603;-78
2022/12/02 09:42:33;;;;;;;9.82;5.07;;;;;;;;;;5076769;28;20020;-78
2022/12/02 09:44:59;;;;;;;10.32;4.32;;;;;;;;;;5069773;28;20036;-78
2022/12/02 09:47:27;;;;;;;11.48;4.60;;;;;;;;;;5068267;28;20127;-78
2022/12/02 09:49:54;;;;;;;12.27;5.82;;;;;;;;;;5070522;28;20043;-78
2022/12/02 09:52:24;;;;;;;7.25;4.75;;;;;;;;;;5064872;28;20025;-78
2022/12/02 09:54:55;;;;;;;6.68;4.45;;;;;;;;;;5070827;28;20539;-79
2022/12/02 09:57:24;;;;;;;6.68;4.28;;;;;;;;;;5072199;28;20449;-77
2022/12/02 09:59:50;;;;;;;7.60;4.55;;;;;;;;;;5074922;28;20036;-78
2022/12/02 10:02:26;;;;;;;4.88;3.88;;;;;;;;;;5072342;28;20363;-78
2022/12/02 10:04:54;;;;;;;6.72;4.07;;;;;;;;;;5068242;28;20024;-78
2022/12/02 10:07:20;;;;;;;9.48;4.25;;;;;;;;;;5070353;28;20044;-79
2022/12/02 10:09:46;;;;;;;10.13;4.85;;;;;;;;;;5067174;28;20026;-78
2022/12/02 10:12:12;;;;;;;13.18;4.45;;;;;;;;;;5049907;28;20025;-79
2022/12/02 10:14:38;;;;;;;10.40;5.10;;;;;;;;;;5068260;28;20056;-78
2022/12/02 10:17:15;;;;;;;8.63;5.10;;;;;;;;;;5068642;28;20056;-79
2022/12/02 10:19:41;;;;;;;9.95;6.53;;;;;;;;;;5069224;28;20158;-79
2022/12/02 10:22:14;;;;;;;10.82;5.57;;;;;;;;;;5070533;28;20033;-78
2022/12/02 10:24:40;;;;;;;10.20;5.50;;;;;;;;;;5072197;28;20074;-78
2022/12/02 10:27:07;;;;;;;11.00;5.72;;;;;;;;;;5073118;28;20121;-78
2022/12/02 10:29:33;;;;;;;8.02;4.40;;;;;;;;;;5089918;28;20042;-78
2022/12/02 10:32:00;;;;;;;11.77;5.45;;;;;;;;;;5067565;28;20044;-78
2022/12/02 10:34:27;;;;;;;6.28;4.18;;;;;;;;;;5063375;28;20024;-78
2022/12/02 10:36:53;;;;;;;8.38;4.50;;;;;;;;;;5067959;28;20496;-78
2022/12/02 10:39:33;;;;;;;10.73;4.18;;;;;;;;;;5071574;28;20056;-79
2022/12/02 10:42:06;;;;;;;8.75;4.47;;;;;;;;;;5073742;28;20497;-78
2022/12/02 10:44:37;;;;;;;9.30;4.60;;;;;;;;;;5080216;28;20092;-79
2022/12/02 10:47:12;;;;;;;9.32;4.63;;;;;;;;;;5079168;28;20049;-78
2022/12/02 10:49:42;;;;;;;9.50;5.18;;;;;;;;;;5070077;28;20482;-79
2022/12/02 10:52:10;;;;;;;9.07;5.65;;;;;;;;;;5072682;28;20035;-79
2022/12/02 10:54:38;;;;;;;8.38;4.60;;;;;;;;;;5074654;28;20032;-78
2022/12/02 10:57:04;;;;;;;6.22;4.22;;;;;;;;;;5076741;28;20079;-78
2022/12/02 10:59:30;;;;;;;10.13;4.25;;;;;;;;;;5068171;28;20028;-79
2022/12/02 11:01:57;;;;;;;9.70;4.53;;;;;;;;;;5061292;28;20017;-79
2022/12/02 11:04:24;;;;;;;6.38;4.60;;;;;;;;;;5069654;28;20451;-79
2022/12/02 11:06:50;;;;;;;10.38;5.18;;;;;;;;;;5060774;28;20028;-79
2022/12/02 11:09:25;;;;;;;10.70;6.63;;;;;;;;;;5067727;28;20573;-79
2022/12/02 11:11:52;;;;;;;16.55;8.38;;;;;;;;;;5064024;28;20135;-78
2022/12/02 11:14:37;;;;;;;17.58;8.20;;;;;;;;;;5084362;28;20033;-78
2022/12/02 11:17:06;;;;;;;13.50;6.37;;;;;;;;;;5049642;28;20131;-78
2022/12/02 11:19:35;;;;;;;17.77;7.72;;;;;;;;;;5068199;28;20486;-79
2022/12/02 11:22:01;;;;;;;17.38;7.68;;;;;;;;;;5072858;28;20033;-79
2022/12/02 11:24:28;;;;;;;15.93;8.13;;;;;;;;;;5068271;28;20067;-78
2022/12/02 11:26:57;;;;;;;12.95;6.43;;;;;;;;;;5071759;28;20020;-78
2022/12/02 11:29:23;;;;;;;12.50;7.35;;;;;;;;;;5071388;28;20016;-78
2022/12/02 11:32:08;;;;;;;15.57;6.95;;;;;;;;;;5054301;28;20078;-78
2022/12/02 11:35:00;;;;;;;13.60;7.73;;;;;;;;;;5071333;28;20028;-79
2022/12/02 11:37:26;;;;;;;16.20;8.40;;;;;;;;;;5061909;28;20667;-78
2022/12/02 11:39:53;;;;;;;20.10;8.82;;;;;;;;;;5050877;28;20390;-78
2022/12/02 11:42:23;;;;;;;14.90;7.53;;;;;;;;;;5070288;28;20052;-79
2022/12/02 11:44:50;;;;;;;17.30;7.72;;;;;;;;;;5068915;28;20021;-78
2022/12/02 11:47:30;;;;;;;14.20;7.50;;;;;;;;;;5067630;28;20086;-78
2022/12/02 11:50:16;;;;;;;14.40;8.32;;;;;;;;;;5049014;28;20063;-79
2022/12/02 11:52:50;;;;;;;10.23;5.88;;;;;;;;;;5054110;28;20032;-78
2022/12/02 11:55:35;;;;;;;12.60;6.30;;;;;;;;;;5067644;28;20111;-78
2022/12/02 11:58:02;;;;;;;11.68;6.22;;;;;;;;;;5069313;28;20107;-78
2022/12/02 12:00:29;;;;;;;9.27;5.50;;;;;;;;;;5071454;28;20035;-78
2022/12/02 12:03:11;;;;;;;10.20;5.30;;;;;;;;;;5067519;28;20024;-79
2022/12/02 12:05:37;;;;;;;8.48;4.72;;;;;;;;;;5063624;28;20024;-78
2022/12/02 12:08:03;;;;;;;10.68;4.72;;;;;;;;;;5066794;28;20024;-78
2022/12/02 12:10:31;;;;;;;9.40;4.65;;;;;;;;;;5068339;28;20370;-79
2022/12/02 12:13:16;;;;;;;10.27;5.20;;;;;;;;;;5070429;28;20024;-78
2022/12/02 12:15:55;;;;;;;6.55;4.68;;;;;;;;;;5069660;28;20460;-78
2022/12/02 12:18:54;;;;;;;9.50;5.05;;;;;;;;;;5065162;28;20040;-78
2022/12/02 12:21:32;;;;;;;8.90;5.15;;;;;;;;;;5036114;28;20112;-78
2022/12/02 12:24:20;;;;;;;9.15;6.25;;;;;;;;;;5070542;28;20024;-78
2022/12/02 12:26:46;;;;;;;15.32;5.93;;;;;;;;;;5073308;28;20115;-78
2022/12/02 12:29:12;;;;;;;8.85;5.30;;;;;;;;;;5058073;28;20017;-78
2022/12/02 12:31:38;;;;;;;10.88;5.07;;;;;;;;;;5060225;28;20029;-79
2022/12/02 12:34:04;;;;;;;6.30;3.92;;;;;;;;;;5055604;28;20044;-78
2022/12/02 12:36:30;;;;;;;12.07;8.23;;;;;;;;;;5072573;28;20044;-79
2022/12/02 12:38:57;;;;;;;11.77;6.50;;;;;;;;;;5081469;28;20020;-78
2022/12/02 12:41:23;;;;;;;8.15;3.90;;;;;;;;;;5075304;28;20048;-78
2022/12/02 12:43:49;;;;;;;8.90;6.13;;;;;;;;;;5077663;28;20027;-78
2022/12/02 12:46:15;;;;;;;6.85;3.35;;;;;;;;;;5074093;28;20028;-78
2022/12/02 12:48:42;;;;;;;6.43;3.25;;;;;;;;;;5058427;28;20108;-78
2022/12/02 12:51:08;;;;;;;8.38;3.55;;;;;;;;;;5066927;28;20071;-77
2022/12/02 12:53:34;;;;;;;5.53;3.13;;;;;;;;;;5079078;28;20030;-78
2022/12/02 12:56:00;;;;;;;15.27;9.00;;;;;;;;;;5058187;28;20063;-78
2022/12/02 12:58:26;;;;;;;16.60;10.43;;;;;;;;;;5077113;28;20552;-79
2022/12/02 13:00:52;;;;;;;22.00;14.77;;;;;;;;;;5079074;28;20047;-78
2022/12/02 13:03:18;;;;;;;25.27;18.65;;;;;;;;;;5069730;28;20028;-78
2022/12/02 13:05:45;;;;;;;18.02;13.13;;;;;;;;;;5071581;28;20032;-78
2022/12/02 13:08:11;;;;;;;13.70;7.97;;;;;;;;;;5073532;28;20020;-79
2022/12/02 13:10:37;;;;;;;11.70;8.15;;;;;;;;;;5073634;28;20386;-78
2022/12/02 13:13:03;;;;;;;8.88;5.30;;;;;;;;;;5054514;28;20028;-78
2022/12/02 13:15:29;;;;;;;15.88;7.47;;;;;;;;;;5075643;28;20039;-79
2022/12/02 13:17:55;;;;;;;8.27;5.45;;;;;;;;;;5062308;28;20048;-78
2022/12/02 13:20:22;;;;;;;6.68;4.55;;;;;;;;;;5072421;28;20032;-78
2022/12/02 13:22:48;;;;;;;10.75;6.75;;;;;;;;;;5071768;28;20428;-78
2022/12/02 13:25:14;;;;;;;19.52;11.60;;;;;;;;;;5073120;28;20469;-78
2022/12/02 13:27:40;;;;;;;11.45;8.77;;;;;;;;;;5072721;28;20023;-78
2022/12/02 13:30:07;;;;;;;11.00;9.00;;;;;;;;;;5077267;28;20082;-78
2022/12/02 13:32:33;;;;;;;14.88;9.68;;;;;;;;;;5070988;28;20377;-78
2022/12/02 13:34:59;;;;;;;10.73;7.68;;;;;;;;;;5074855;28;20221;-78
2022/12/02 13:37:25;;;;;;;6.07;4.40;;;;;;;;;;5069333;28;20066;-78
2022/12/02 13:39:51;;;;;;;7.05;4.80;;;;;;;;;;5067208;28;20514;-78
2022/12/02 13:42:17;;;;;;;7.50;5.80;;;;;;;;;;5069124;28;20029;-78
2022/12/02 13:44:43;;;;;;;9.05;5.97;;;;;;;;;;5073761;28;20025;-78
2022/12/02 13:47:10;;;;;;;7.70;5.35;;;;;;;;;;5068889;28;20515;-79
2022/12/02 13:49:36;;;;;;;7.30;4.90;;;;;;;;;;5069385;28;20033;-78
2022/12/02 13:52:02;;;;;;;9.50;6.15;;;;;;;;;;5064494;28;20502;-78
2022/12/02 13:54:28;;;;;;;6.80;4.85;;;;;;;;;;5073945;28;20111;-78
2022/12/02 13:56:54;;;;;;;9.10;4.53;;;;;;;;;;5074288;28;20173;-77
2022/12/02 13:59:20;;;;;;;7.25;4.63;;;;;;;;;;5074246;28;20096;-78
2022/12/02 14:01:46;;;;;;;7.00;4.22;;;;;;;;;;5073555;28;20051;-78
2022/12/02 14:04:12;;;;;;;8.13;5.30;;;;;;;;;;5068259;28;20024;-77
2022/12/02 14:06:38;;;;;;;8.57;3.83;;;;;;;;;;5064662;28;20030;-77
2022/12/02 14:09:04;;;;;;;11.52;4.35;;;;;;;;;;5069828;28;20536;-78
2022/12/02 14:11:30;;;;;;;5.70;3.60;;;;;;;;;;5068160;28;20092;-78
2022/12/02 14:13:56;;;;;;;8.50;4.28;;;;;;;;;;5072272;28;20040;-80
2022/12/02 14:16:23;;;;;;;10.70;5.95;;;;;;;;;;5099792;28;20028;-79
2022/12/02 14:18:49;;;;;;;4.43;3.75;;;;;;;;;;5069793;28;20394;-78
2022/12/02 14:21:15;;;;;;;5.93;4.20;;;;;;;;;;5055229;28;20529;-78
2022/12/02 14:23:41;;;;;;;8.45;4.72;;;;;;;;;;5069105;28;20044;-78
2022/12/02 14:26:07;;;;;;;7.47;4.03;;;;;;;;;;5065955;28;20017;-78
2022/12/02 14:28:33;;;;;;;7.88;3.65;;;;;;;;;;5080562;28;20450;-78
2022/12/02 14:30:59;;;;;;;6.40;4.20;;;;;;;;;;5068783;28;20021;-78
2022/12/02 14:33:25;;;;;;;8.85;3.55;;;;;;;;;;5085725;28;20028;-78
2022/12/02 14:35:52;;;;;;;4.88;3.85;;;;;;;;;;5077396;28;20032;-78
2022/12/02 14:38:18;;;;;;;9.80;5.20;;;;;;;;;;5087701;28;20493;-79
2022/12/02 14:40:44;;;;;;;16.50;9.25;;;;;;;;;;5050382;28;20027;-78
2022/12/02 14:43:10;;;;;;;8.15;4.82;;;;;;;;;;5075429;28;20025;-80
2022/12/02 14:45:36;;;;;;;9.40;4.10;;;;;;;;;;5050387;28;20115;-77